createdAt,value
2016-04-06T00:00:25.976Z,56
2016-04-06T00:01:26.307Z,56
2016-04-06T00:02:26.779Z,56
2016-04-06T00:03:27.359Z,56
2016-04-06T00:04:28.018Z,56
2016-04-06T00:05:28.504Z,56
2016-04-06T00:06:29.539Z,56
2016-04-06T00:07:29.901Z,56
2016-04-06T00:08:30.434Z,56
2016-04-06T00:09:31.000Z,56
2016-04-06T00:10:31.705Z,56
2016-04-06T00:11:32.130Z,56
2016-04-06T00:12:32.711Z,56
2016-04-06T00:13:33.275Z,56
2016-04-06T00:14:33.841Z,56
2016-04-06T00:15:34.453Z,56
2016-04-06T00:16:35.502Z,56
2016-04-06T00:17:36.161Z,56
2016-04-06T00:18:36.617Z,56
2016-04-06T00:19:37.183Z,56
2016-04-06T00:20:37.747Z,56
2016-04-06T00:21:38.344Z,56
2016-04-06T00:22:38.894Z,56
2016-04-06T00:23:39.475Z,56
2016-04-06T00:24:40.024Z,56
2016-04-06T00:25:40.652Z,56
2016-04-06T00:26:41.670Z,56
2016-04-06T00:27:42.235Z,56
2016-04-06T00:28:42.816Z,56
2016-04-06T00:29:43.507Z,56
2016-04-06T00:30:43.979Z,56
2016-04-06T00:31:44.575Z,56
2016-04-06T00:32:45.093Z,56
2016-04-06T00:33:45.783Z,56
2016-04-06T00:34:46.239Z,56
2016-04-06T00:35:46.976Z,56
2016-04-06T00:36:47.869Z,56
2016-04-06T00:37:48.481Z,57
2016-04-06T00:38:49.265Z,57
2016-04-06T00:39:50.096Z,57
2016-04-06T00:40:50.912Z,56
2016-04-06T00:41:51.492Z,56
2016-04-06T00:42:52.073Z,56
2016-04-06T00:43:52.653Z,56
2016-04-06T00:44:53.328Z,56
2016-04-06T00:45:53.815Z,56
2016-04-06T00:46:54.989Z,56
2016-04-06T00:47:55.415Z,57
2016-04-06T00:48:56.323Z,57
2016-04-06T00:49:57.076Z,57
2016-04-06T00:50:57.891Z,57
2016-04-06T00:51:58.831Z,57
2016-04-06T00:52:59.663Z,57
2016-04-06T00:54:00.493Z,57
2016-04-06T00:55:01.214Z,57
2016-04-06T00:56:02.170Z,57
2016-04-06T00:57:03.111Z,57
2016-04-06T00:58:03.926Z,57
2016-04-06T00:59:04.710Z,57
2016-04-06T01:00:05.557Z,57
2016-04-06T01:01:06.355Z,57
2016-04-06T01:02:07.187Z,57
2016-04-06T01:03:08.111Z,57
2016-04-06T01:04:08.832Z,57
2016-04-06T01:05:09.648Z,57
2016-04-06T01:06:10.525Z,57
2016-04-06T01:07:11.668Z,57
2016-04-06T01:08:12.315Z,57
2016-04-06T01:09:13.193Z,57
2016-04-06T01:10:14.117Z,57
2016-04-06T01:11:14.964Z,57
2016-04-06T01:12:15.669Z,57
2016-04-06T01:13:16.515Z,57
2016-04-06T01:14:17.300Z,57
2016-04-06T01:15:18.115Z,57
2016-04-06T01:16:19.118Z,57
2016-04-06T01:17:20.026Z,57
2016-04-06T01:18:20.858Z,57
2016-04-06T01:19:21.672Z,57
2016-04-06T01:20:22.597Z,57
2016-04-06T01:21:23.319Z,57
2016-04-06T01:22:24.133Z,57
2016-04-06T01:23:24.964Z,57
2016-04-06T01:24:25.794Z,57
2016-04-06T01:25:26.611Z,57
2016-04-06T01:26:27.488Z,57
2016-04-06T01:27:28.507Z,57
2016-04-06T01:28:29.338Z,57
2016-04-06T01:29:30.152Z,57
2016-04-06T01:30:30.983Z,57
2016-04-06T01:31:31.798Z,57
2016-04-06T01:32:32.629Z,57
2016-04-06T01:33:33.443Z,57
2016-04-06T01:34:34.384Z,57
2016-04-06T01:35:35.106Z,57
2016-04-06T01:36:35.968Z,57
2016-04-06T01:37:37.002Z,57
2016-04-06T01:38:37.818Z,57
2016-04-06T01:39:38.648Z,57
2016-04-06T01:40:39.573Z,57
2016-04-06T01:41:40.294Z,57
2016-04-06T01:42:41.156Z,57
2016-04-06T01:43:42.050Z,57
2016-04-06T01:44:42.881Z,57
2016-04-06T01:45:43.696Z,57
2016-04-06T01:46:44.495Z,57
2016-04-06T01:47:45.607Z,57
2016-04-06T01:48:46.313Z,57
2016-04-06T01:49:47.253Z,57
2016-04-06T01:50:47.958Z,57
2016-04-06T01:51:48.899Z,57
2016-04-06T01:52:49.605Z,57
2016-04-06T01:53:50.451Z,57
2016-04-06T01:54:51.251Z,57
2016-04-06T01:55:52.332Z,57
2016-04-06T01:56:53.569Z,57
2016-04-06T01:57:54.478Z,57
2016-04-06T01:58:55.558Z,57
2016-04-06T01:59:56.639Z,57
2016-04-06T02:00:57.704Z,57
2016-04-06T02:01:58.644Z,57
2016-04-06T02:02:59.615Z,57
2016-04-06T02:04:00.696Z,57
2016-04-06T02:05:01.887Z,57
2016-04-06T02:06:02.843Z,57
2016-04-06T02:07:04.002Z,57
2016-04-06T02:08:05.106Z,57
2016-04-06T02:09:06.093Z,57
2016-04-06T02:10:07.285Z,57
2016-04-06T02:11:08.349Z,57
2016-04-06T02:12:09.305Z,57
2016-04-06T02:13:10.495Z,57
2016-04-06T02:14:11.466Z,57
2016-04-06T02:15:12.582Z,57
2016-04-06T02:16:13.616Z,57
2016-04-06T02:17:14.743Z,57
2016-04-06T02:18:15.902Z,57
2016-04-06T02:19:16.936Z,57
2016-04-06T02:20:18.048Z,57
2016-04-06T02:21:19.020Z,57
2016-04-06T02:22:20.101Z,57
2016-04-06T02:23:21.166Z,57
2016-04-06T02:24:22.246Z,57
2016-04-06T02:25:23.437Z,57
2016-04-06T02:26:24.501Z,57
2016-04-06T02:27:25.536Z,57
2016-04-06T02:28:26.569Z,57
2016-04-06T02:29:27.650Z,57
2016-04-06T02:30:28.825Z,57
2016-04-06T02:31:29.797Z,57
2016-04-06T02:32:30.862Z,57
2016-04-06T02:33:32.053Z,57
2016-04-06T02:34:33.008Z,57
2016-04-06T02:35:34.120Z,57
2016-04-06T02:36:35.278Z,57
2016-04-06T02:37:36.297Z,57
2016-04-06T02:38:37.441Z,57
2016-04-06T02:39:38.427Z,57
2016-04-06T02:40:39.727Z,57
2016-04-06T02:41:41.058Z,57
2016-04-06T02:43:43.704Z,57
2016-04-06T02:44:45.050Z,57
2016-04-06T02:45:46.428Z,57
2016-04-06T02:46:47.712Z,57
2016-04-06T02:47:49.105Z,57
2016-04-06T02:48:50.123Z,57
2016-04-06T02:49:51.454Z,57
2016-04-06T02:50:53.098Z,57
2016-04-06T02:51:54.116Z,57
2016-04-06T02:52:55.557Z,57
2016-04-06T02:53:56.918Z,57
2016-04-06T02:54:58.234Z,57
2016-04-06T02:55:59.439Z,57
2016-04-06T02:57:00.770Z,57
2016-04-06T02:58:02.148Z,57
2016-04-06T02:59:03.166Z,57
2016-04-06T03:00:04.497Z,57
2016-04-06T03:01:05.843Z,57
2016-04-06T03:02:07.175Z,57
2016-04-06T03:03:08.506Z,57
2016-04-06T03:04:09.851Z,57
2016-04-06T03:05:11.183Z,57
2016-04-06T03:06:12.594Z,57
2016-04-06T03:07:13.816Z,57
2016-04-06T03:08:15.239Z,57
2016-04-06T03:09:16.227Z,57
2016-04-06T03:10:17.651Z,57
2016-04-06T03:11:18.982Z,57
2016-04-06T03:12:20.235Z,57
2016-04-06T03:13:21.691Z,57
2016-04-06T03:14:22.913Z,57
2016-04-06T03:15:24.321Z,57
2016-04-06T03:16:25.574Z,57
2016-04-06T03:17:26.842Z,57
2016-04-06T03:18:28.251Z,57
2016-04-06T03:19:29.269Z,57
2016-04-06T03:20:30.585Z,57
2016-04-06T03:21:31.963Z,57
2016-04-06T03:22:33.246Z,57
2016-04-06T03:23:34.577Z,57
2016-04-06T03:24:35.923Z,57
2016-04-06T03:25:37.239Z,57
2016-04-06T03:26:38.694Z,57
2016-04-06T03:27:39.900Z,57
2016-04-06T03:28:41.293Z,57
2016-04-06T03:29:42.436Z,57
2016-04-06T03:30:43.659Z,57
2016-04-06T03:31:44.973Z,57
2016-04-06T03:32:46.320Z,57
2016-04-06T03:33:47.636Z,57
2016-04-06T03:34:48.998Z,57
2016-04-06T03:35:50.562Z,57
2016-04-06T03:36:51.628Z,57
2016-04-06T03:37:52.958Z,57
2016-04-06T03:38:54.352Z,57
2016-04-06T03:39:55.369Z,57
2016-04-06T03:40:56.841Z,57
2016-04-06T03:41:58.032Z,57
2016-04-06T03:42:59.363Z,57
2016-04-06T03:44:00.694Z,57
2016-04-06T03:45:02.024Z,57
2016-04-06T03:46:03.480Z,57
2016-04-06T03:47:04.701Z,57
2016-04-06T03:48:06.032Z,57
2016-04-06T03:49:07.410Z,57
2016-04-06T03:50:08.429Z,57
2016-04-06T03:51:09.790Z,57
2016-04-06T03:52:11.105Z,57
2016-04-06T03:53:12.421Z,57
2016-04-06T03:54:13.879Z,57
2016-04-06T03:55:15.101Z,57
2016-04-06T03:56:16.431Z,57
2016-04-06T03:57:17.778Z,58
2016-04-06T03:58:19.452Z,57
2016-04-06T03:59:20.737Z,57
2016-04-06T04:00:21.864Z,57
2016-04-06T04:01:23.179Z,57
2016-04-06T04:02:24.417Z,57
2016-04-06T04:03:25.872Z,58
2016-04-06T04:04:27.328Z,58
2016-04-06T04:06:30.489Z,58
2016-04-06T04:07:32.086Z,57
2016-04-06T04:08:33.401Z,58
2016-04-06T04:09:35.154Z,58
2016-04-06T04:10:36.063Z,58
2016-04-06T04:11:37.644Z,58
2016-04-06T04:12:39.365Z,58
2016-04-06T04:13:40.805Z,58
2016-04-06T04:14:42.402Z,58
2016-04-06T04:15:43.983Z,58
2016-04-06T04:16:45.563Z,58
2016-04-06T04:17:47.160Z,58
2016-04-06T04:18:48.866Z,58
2016-04-06T04:19:50.368Z,58
2016-04-06T04:20:51.418Z,58
2016-04-06T04:21:52.999Z,58
2016-04-06T04:22:54.563Z,58
2016-04-06T04:24:57.741Z,58
2016-04-06T04:25:59.337Z,58
2016-04-06T04:27:01.043Z,58
2016-04-06T04:28:02.609Z,58
2016-04-06T04:29:04.079Z,58
2016-04-06T04:30:05.708Z,58
2016-04-06T04:31:06.742Z,58
2016-04-06T04:32:08.338Z,58
2016-04-06T04:33:09.903Z,58
2016-04-06T04:34:11.500Z,58
2016-04-06T04:35:13.205Z,58
2016-04-06T04:36:14.664Z,58
2016-04-06T04:37:16.369Z,58
2016-04-06T04:39:19.547Z,58
2016-04-06T04:40:21.159Z,58
2016-04-06T04:41:22.068Z,58
2016-04-06T04:42:23.649Z,58
2016-04-06T04:43:25.230Z,58
2016-04-06T04:44:26.810Z,58
2016-04-06T04:45:28.438Z,58
2016-04-06T04:46:30.113Z,58
2016-04-06T04:47:31.584Z,58
2016-04-06T04:48:33.166Z,58
2016-04-06T04:49:34.855Z,58
2016-04-06T04:50:36.498Z,58
2016-04-06T04:51:37.407Z,58
2016-04-06T04:52:39.004Z,58
2016-04-06T04:53:40.568Z,58
2016-04-06T04:54:42.260Z,58
2016-04-06T04:55:43.731Z,58
2016-04-06T04:56:45.327Z,58
2016-04-06T04:57:46.908Z,58
2016-04-06T04:58:48.520Z,58
2016-04-06T04:59:50.085Z,58
2016-04-06T05:00:51.713Z,58
2016-04-06T05:01:52.747Z,58
2016-04-06T05:02:54.312Z,58
2016-04-06T05:03:55.908Z,58
2016-04-06T05:04:57.598Z,58
2016-04-06T05:05:59.069Z,58
2016-04-06T05:07:00.776Z,58
2016-04-06T05:08:02.248Z,58
2016-04-06T05:09:03.937Z,58
2016-04-06T05:10:05.409Z,58
2016-04-06T05:11:07.037Z,58
2016-04-06T05:12:08.070Z,58
2016-04-06T05:13:09.652Z,58
2016-04-06T05:14:11.233Z,58
2016-04-06T05:15:12.828Z,58
2016-04-06T05:16:14.410Z,58
2016-04-06T05:17:15.990Z,58
2016-04-06T05:18:17.683Z,58
2016-04-06T05:19:19.296Z,58
2016-04-06T05:20:20.813Z,58
2016-04-06T05:21:22.504Z,58
2016-04-06T05:22:23.413Z,58
2016-04-06T05:23:24.993Z,58
2016-04-06T05:24:26.590Z,58
2016-04-06T05:25:28.155Z,58
2016-04-06T05:26:29.782Z,58
2016-04-06T05:27:31.332Z,58
2016-04-06T05:28:32.924Z,58
2016-04-06T05:29:34.504Z,58
2016-04-06T05:30:36.210Z,58
2016-04-06T05:31:37.760Z,58
2016-04-06T05:32:38.748Z,58
2016-04-06T05:33:40.328Z,58
2016-04-06T05:34:41.956Z,58
2016-04-06T05:35:43.506Z,58
2016-04-06T05:36:45.087Z,58
2016-04-06T05:37:46.776Z,58
2016-04-06T05:38:48.184Z,58
2016-04-06T05:39:49.829Z,58
2016-04-06T05:40:51.425Z,58
2016-04-06T05:41:49.365Z,58
2016-04-06T05:42:50.290Z,58
2016-04-06T05:43:51.855Z,58
2016-04-06T05:44:53.561Z,58
2016-04-06T05:45:55.033Z,58
2016-04-06T05:46:52.816Z,58
2016-04-06T05:47:50.741Z,58
2016-04-06T05:48:52.180Z,58
2016-04-06T05:49:49.964Z,58
2016-04-06T05:50:51.546Z,58
2016-04-06T05:51:53.188Z,58
2016-04-06T05:52:54.332Z,58
2016-04-06T05:53:55.819Z,58
2016-04-06T05:54:57.400Z,58
2016-04-06T05:55:59.121Z,58
2016-04-06T05:57:00.562Z,58
2016-04-06T05:58:02.548Z,58
2016-04-06T05:59:03.724Z,58
2016-04-06T06:00:05.430Z,58
2016-04-06T06:01:06.900Z,58
2016-04-06T06:02:08.529Z,58
2016-04-06T06:03:09.546Z,58
2016-04-06T06:04:11.154Z,58
2016-04-06T06:05:12.780Z,58
2016-04-06T06:06:14.391Z,58
2016-04-06T06:07:16.173Z,58
2016-04-06T06:08:17.660Z,58
2016-04-06T06:09:19.278Z,58
2016-04-06T06:10:20.925Z,58
2016-04-06T06:11:22.631Z,58
2016-04-06T06:12:24.260Z,58
2016-04-06T06:13:25.182Z,58
2016-04-06T06:14:26.768Z,58
2016-04-06T06:15:28.371Z,58
2016-04-06T06:16:29.957Z,58
2016-04-06T06:18:33.114Z,58
2016-04-06T06:19:34.712Z,58
2016-04-06T06:20:36.295Z,58
2016-04-06T06:21:37.893Z,58
2016-04-06T06:22:39.273Z,58
2016-04-06T06:23:40.310Z,58
2016-04-06T06:24:41.861Z,58
2016-04-06T06:25:43.318Z,58
2016-04-06T06:26:44.555Z,58
2016-04-06T06:27:45.886Z,58
2016-04-06T06:28:47.203Z,58
2016-04-06T06:29:48.518Z,58
2016-04-06T06:30:49.865Z,58
2016-04-06T06:31:51.180Z,58
2016-04-06T06:32:52.605Z,58
2016-04-06T06:33:53.593Z,58
2016-04-06T06:34:54.892Z,58
2016-04-06T06:35:56.254Z,58
2016-04-06T06:36:57.585Z,58
2016-04-06T06:37:58.916Z,58
2016-04-06T06:39:00.371Z,58
2016-04-06T06:40:01.577Z,58
2016-04-06T06:41:02.909Z,58
2016-04-06T06:42:04.240Z,58
2016-04-06T06:43:05.617Z,58
2016-04-06T06:44:06.651Z,58
2016-04-06T06:45:07.966Z,58
2016-04-06T06:46:09.423Z,58
2016-04-06T06:47:10.628Z,58
2016-04-06T06:48:12.067Z,58
2016-04-06T06:49:13.273Z,58
2016-04-06T06:50:14.620Z,58
2016-04-06T06:51:15.951Z,57
2016-04-06T06:52:17.016Z,58
2016-04-06T06:53:18.425Z,57
2016-04-06T06:54:19.428Z,57
2016-04-06T06:55:20.508Z,57
2016-04-06T06:56:21.608Z,57
2016-04-06T06:57:22.673Z,57
2016-04-06T06:58:23.738Z,57
2016-04-06T06:59:24.802Z,57
2016-04-06T07:00:25.993Z,57
2016-04-06T07:01:26.966Z,57
2016-04-06T07:02:28.030Z,57
2016-04-06T07:03:29.174Z,57
2016-04-06T07:04:30.223Z,57
2016-04-06T07:05:31.007Z,57
2016-04-06T07:06:31.947Z,57
2016-04-06T07:07:32.902Z,57
2016-04-06T07:08:33.984Z,57
2016-04-06T07:09:35.049Z,56
2016-04-06T07:10:35.740Z,56
2016-04-06T07:11:35.929Z,56
2016-04-06T07:12:36.245Z,56
2016-04-06T07:13:36.637Z,56
2016-04-06T07:14:37.640Z,55
2016-04-06T07:15:37.564Z,55
2016-04-06T07:16:37.317Z,54
2016-04-06T07:17:36.820Z,55
2016-04-06T07:18:36.636Z,54
2016-04-06T07:20:35.220Z,54
2016-04-06T07:21:34.534Z,53
2016-04-06T07:22:33.318Z,53
2016-04-06T07:23:32.556Z,54
2016-04-06T07:24:33.434Z,54
2016-04-06T07:25:32.733Z,53
2016-04-06T07:26:31.782Z,53
2016-04-06T07:27:30.581Z,54
2016-04-06T07:28:30.006Z,53
2016-04-06T07:29:28.680Z,53
2016-04-06T07:30:27.511Z,52
2016-04-06T07:31:26.030Z,52
2016-04-06T07:32:24.329Z,52
2016-04-06T07:33:22.657Z,52
2016-04-06T07:34:23.694Z,51
2016-04-06T07:35:21.663Z,52
2016-04-06T07:36:20.010Z,52
2016-04-06T07:37:18.293Z,51
2016-04-06T07:38:16.327Z,52
2016-04-06T07:39:14.611Z,52
2016-04-06T07:40:13.161Z,52
2016-04-06T07:41:11.570Z,52
2016-04-06T07:42:09.729Z,52
2016-04-06T07:43:08.076Z,52
2016-04-06T07:44:09.078Z,51
2016-04-06T07:45:07.112Z,51
2016-04-06T07:46:05.146Z,51
2016-04-06T07:47:03.180Z,51
2016-04-06T07:48:01.214Z,51
2016-04-06T07:48:59.373Z,51
2016-04-06T07:49:57.407Z,51
2016-04-06T07:50:55.065Z,50
2016-04-06T07:51:56.631Z,50
2016-04-06T07:52:58.023Z,50
2016-04-06T07:53:59.042Z,50
2016-04-06T07:55:00.483Z,50
2016-04-06T07:56:01.703Z,50
2016-04-06T07:57:03.159Z,50
2016-04-06T07:58:04.366Z,50
2016-04-06T07:59:05.697Z,50
2016-04-06T08:00:07.386Z,50
2016-04-06T08:01:08.608Z,50
2016-04-06T08:02:10.172Z,50
2016-04-06T08:03:11.801Z,50
2016-04-06T08:04:12.835Z,50
2016-04-06T08:05:14.415Z,50
2016-04-06T08:06:16.105Z,50
2016-04-06T08:07:17.561Z,50
2016-04-06T08:08:19.268Z,51
2016-04-06T08:09:17.161Z,51
2016-04-06T08:10:14.741Z,51
2016-04-06T08:11:12.526Z,51
2016-04-06T08:12:10.263Z,51
2016-04-06T08:13:08.359Z,52
2016-04-06T08:14:09.362Z,52
2016-04-06T08:15:07.646Z,52
2016-04-06T08:16:05.929Z,51
2016-04-06T08:17:03.979Z,52
2016-04-06T08:18:02.247Z,51
2016-04-06T08:19:00.031Z,51
2016-04-06T08:19:58.081Z,51
2016-04-06T08:20:56.098Z,51
2016-04-06T08:21:53.992Z,51
2016-04-06T08:22:51.745Z,51
2016-04-06T08:23:52.857Z,52
2016-04-06T08:24:51.376Z,53
2016-04-06T08:25:50.034Z,53
2016-04-06T08:26:48.881Z,52
2016-04-06T08:27:47.258Z,52
2016-04-06T08:28:45.434Z,52
2016-04-06T08:29:43.858Z,52
2016-04-06T08:30:42.158Z,52
2016-04-06T08:31:40.332Z,52
2016-04-06T08:32:38.772Z,52
2016-04-06T08:33:39.650Z,52
2016-04-06T08:34:37.934Z,52
2016-04-06T08:35:36.250Z,53
2016-04-06T08:36:35.002Z,53
2016-04-06T08:37:33.910Z,53
2016-04-06T08:38:32.585Z,53
2016-04-06T08:39:31.760Z,53
2016-04-06T08:40:30.685Z,54
2016-04-06T08:41:29.984Z,54
2016-04-06T08:42:29.471Z,54
2016-04-06T08:43:30.349Z,53
2016-04-06T08:44:29.399Z,53
2016-04-06T08:45:28.323Z,53
2016-04-06T08:46:26.998Z,54
2016-04-06T08:47:26.404Z,53
2016-04-06T08:48:25.110Z,53
2016-04-06T08:49:23.878Z,53
2016-04-06T08:50:22.723Z,52
2016-04-06T08:51:21.352Z,53
2016-04-06T08:52:20.057Z,53
2016-04-06T08:53:21.092Z,53
2016-04-06T08:54:19.907Z,53
2016-04-06T08:55:18.659Z,53
2016-04-06T08:56:17.568Z,53
2016-04-06T08:57:16.243Z,53
2016-04-06T08:58:15.042Z,53
2016-04-06T08:59:13.951Z,53
2016-04-06T09:00:12.907Z,53
2016-04-06T09:01:11.926Z,53
2016-04-06T09:02:11.163Z,54
2016-04-06T09:03:12.041Z,54
2016-04-06T09:04:11.636Z,55
2016-04-06T09:05:11.421Z,54
2016-04-06T09:06:10.970Z,55
2016-04-06T09:07:10.770Z,55
2016-04-06T09:08:10.569Z,55
2016-04-06T09:09:10.650Z,56
2016-04-06T09:10:10.949Z,56
2016-04-06T09:11:11.265Z,56
2016-04-06T09:12:12.002Z,56
2016-04-06T09:13:12.895Z,56
2016-04-06T09:14:13.492Z,57
2016-04-06T09:15:14.338Z,56
2016-04-06T09:16:14.903Z,56
2016-04-06T09:17:15.421Z,56
2016-04-06T09:18:15.987Z,57
2016-04-06T09:19:16.959Z,57
2016-04-06T09:20:17.867Z,56
2016-04-06T09:21:18.371Z,56
2016-04-06T09:22:18.826Z,57
2016-04-06T09:23:19.953Z,56
2016-04-06T09:24:20.457Z,56
2016-04-06T09:25:20.990Z,56
2016-04-06T09:26:21.556Z,56
2016-04-06T09:27:22.151Z,56
2016-04-06T09:28:22.701Z,56
2016-04-06T09:29:23.236Z,56
2016-04-06T09:30:23.925Z,56
2016-04-06T09:31:24.381Z,56
2016-04-06T09:32:25.134Z,57
2016-04-06T09:33:26.137Z,57
2016-04-06T09:34:27.202Z,57
2016-04-06T09:35:28.298Z,57
2016-04-06T09:36:29.257Z,58
2016-04-06T09:37:30.681Z,58
2016-04-06T09:38:31.888Z,58
2016-04-06T09:39:33.343Z,58
2016-04-06T09:40:34.549Z,58
2016-04-06T09:41:36.161Z,58
2016-04-06T09:42:37.777Z,59
2016-04-06T09:43:38.796Z,59
2016-04-06T09:44:36.596Z,59
2016-04-06T09:45:34.482Z,59
2016-04-06T09:46:32.375Z,59
2016-04-06T09:47:30.410Z,59
2016-04-06T09:48:28.488Z,59
2016-04-06T09:49:26.599Z,59
2016-04-06T09:50:24.619Z,59
2016-04-06T09:51:22.683Z,59
2016-04-06T09:52:20.655Z,60
2016-04-06T09:53:21.673Z,60
2016-04-06T09:54:19.926Z,59
2016-04-06T09:55:17.960Z,59
2016-04-06T09:56:16.040Z,59
2016-04-06T09:57:14.152Z,59
2016-04-06T09:58:12.077Z,59
2016-04-06T09:59:10.220Z,59
2016-04-06T10:00:08.379Z,59
2016-04-06T10:01:06.178Z,59
2016-04-06T10:02:04.276Z,59
2016-04-06T10:03:05.418Z,59
2016-04-06T10:04:03.437Z,59
2016-04-06T10:05:01.377Z,59
2016-04-06T10:05:59.395Z,59
2016-04-06T10:06:57.429Z,59
2016-04-06T10:07:55.589Z,59
2016-04-06T10:08:53.466Z,59
2016-04-06T10:09:51.625Z,60
2016-04-06T10:10:49.925Z,60
2016-04-06T10:11:48.255Z,60
2016-04-06T10:12:49.211Z,60
2016-04-06T10:13:47.448Z,60
2016-04-06T10:14:45.732Z,60
2016-04-06T10:15:44.016Z,60
2016-04-06T10:16:42.019Z,60
2016-04-06T10:17:40.600Z,60
2016-04-06T10:18:38.883Z,60
2016-04-06T10:19:37.152Z,59
2016-04-06T10:20:35.217Z,60
2016-04-06T10:21:33.672Z,60
2016-04-06T10:22:34.675Z,60
2016-04-06T10:23:32.850Z,60
2016-04-06T10:24:31.290Z,60
2016-04-06T10:25:29.555Z,60
2016-04-06T10:26:27.730Z,60
2016-04-06T10:27:26.015Z,60
2016-04-06T10:28:24.283Z,60
2016-04-06T10:29:22.707Z,59
2016-04-06T10:30:20.584Z,59
2016-04-06T10:31:18.697Z,59
2016-04-06T10:32:19.699Z,59
2016-04-06T10:33:17.484Z,58
2016-04-06T10:34:19.079Z,58
2016-04-06T10:35:20.771Z,58
2016-04-06T10:36:22.242Z,58
2016-04-06T10:37:23.666Z,58
2016-04-06T10:38:24.887Z,58
2016-04-06T10:39:26.218Z,57
2016-04-06T10:40:27.315Z,57
2016-04-06T10:41:28.442Z,57
2016-04-06T10:42:29.445Z,57
2016-04-06T10:43:30.388Z,57
2016-04-06T10:44:31.094Z,57
2016-04-06T10:45:31.909Z,57
2016-04-06T10:46:32.850Z,57
2016-04-06T10:48:34.370Z,57
2016-04-06T10:49:35.451Z,57
2016-04-06T10:50:36.532Z,57
2016-04-06T10:51:37.660Z,57
2016-04-06T10:52:38.678Z,57
2016-04-06T10:53:39.743Z,58
2016-04-06T10:54:41.058Z,58
2016-04-06T10:55:42.405Z,58
2016-04-06T10:56:43.751Z,58
2016-04-06T10:57:45.066Z,58
2016-04-06T10:58:46.382Z,58
2016-04-06T10:59:47.821Z,58
2016-04-06T11:00:49.043Z,58
2016-04-06T11:01:50.686Z,58
2016-04-06T11:02:51.815Z,58
2016-04-06T11:03:53.301Z,58
2016-04-06T11:04:54.866Z,58
2016-04-06T11:05:56.478Z,58
2016-04-06T11:06:58.013Z,58
2016-04-06T11:07:59.593Z,58
2016-04-06T11:09:01.173Z,58
2016-04-06T11:10:02.771Z,58
2016-04-06T11:11:04.351Z,58
2016-04-06T11:12:05.994Z,58
2016-04-06T11:13:07.014Z,58
2016-04-06T11:14:08.579Z,58
2016-04-06T11:15:10.175Z,58
2016-04-06T11:16:11.755Z,58
2016-04-06T11:17:13.336Z,58
2016-04-06T11:18:14.917Z,58
2016-04-06T11:19:16.497Z,58
2016-04-06T11:20:18.078Z,58
2016-04-06T11:21:19.769Z,59
2016-04-06T11:22:17.491Z,58
2016-04-06T11:23:18.540Z,59
2016-04-06T11:24:16.418Z,59
2016-04-06T11:25:14.077Z,59
2016-04-06T11:26:11.969Z,59
2016-04-06T11:27:09.644Z,59
2016-04-06T11:28:07.413Z,59
2016-04-06T11:29:05.196Z,59
2016-04-06T11:30:02.965Z,59
2016-04-06T11:31:00.873Z,59
2016-04-06T11:31:58.595Z,59
2016-04-06T11:32:59.738Z,59
2016-04-06T11:33:57.413Z,59
2016-04-06T11:34:55.198Z,59
2016-04-06T11:35:52.950Z,59
2016-04-06T11:36:50.734Z,59
2016-04-06T11:37:48.518Z,59
2016-04-06T11:38:46.286Z,59
2016-04-06T11:39:44.070Z,58
2016-04-06T11:40:45.666Z,58
2016-04-06T11:41:47.310Z,58
2016-04-06T11:42:48.328Z,58
2016-04-06T11:43:49.893Z,58
2016-04-06T11:44:51.474Z,58
2016-04-06T11:45:53.055Z,58
2016-04-06T11:46:54.651Z,58
2016-04-06T11:47:56.217Z,58
2016-04-06T11:48:57.813Z,58
2016-04-06T11:49:59.519Z,58
2016-04-06T11:51:00.991Z,58
2016-04-06T11:52:02.633Z,58
2016-04-06T11:53:03.652Z,58
2016-04-06T11:54:05.326Z,58
2016-04-06T11:55:06.813Z,58
2016-04-06T11:56:08.379Z,58
2016-04-06T11:57:09.960Z,58
2016-04-06T11:58:11.541Z,58
2016-04-06T11:59:13.121Z,58
2016-04-06T12:00:14.718Z,58
2016-04-06T12:01:16.282Z,58
2016-04-06T12:02:17.676Z,58
2016-04-06T12:03:18.819Z,58
2016-04-06T12:04:20.166Z,58
2016-04-06T12:05:21.356Z,58
2016-04-06T12:06:22.687Z,58
2016-04-06T12:07:24.001Z,58
2016-04-06T12:08:25.340Z,58
2016-04-06T12:09:26.670Z,58
2016-04-06T12:10:28.001Z,58
2016-04-06T12:11:29.332Z,58
2016-04-06T12:12:30.710Z,58
2016-04-06T12:13:31.728Z,58
2016-04-06T12:14:33.061Z,58
2016-04-06T12:15:34.393Z,58
2016-04-06T12:16:35.832Z,58
2016-04-06T12:17:37.040Z,58
2016-04-06T12:18:38.387Z,58
2016-04-06T12:19:39.749Z,58
2016-04-06T12:20:41.033Z,58
2016-04-06T12:21:42.489Z,58
2016-04-06T12:22:43.741Z,58
2016-04-06T12:23:44.884Z,58
2016-04-06T12:24:46.090Z,58
2016-04-06T12:25:47.422Z,58
2016-04-06T12:26:48.752Z,58
2016-04-06T12:27:50.083Z,58
2016-04-06T12:28:51.522Z,58
2016-04-06T12:29:52.760Z,58
2016-04-06T12:30:54.060Z,58
2016-04-06T12:31:55.391Z,58
2016-04-06T12:32:56.783Z,58
2016-04-06T12:33:57.803Z,58
2016-04-06T12:34:59.242Z,58
2016-04-06T12:36:00.448Z,58
2016-04-06T12:37:01.779Z,58
2016-04-06T12:38:03.235Z,58
2016-04-06T12:39:04.690Z,58
2016-04-06T12:40:06.272Z,58
2016-04-06T12:41:07.555Z,58
2016-04-06T12:42:09.465Z,58
2016-04-06T12:43:11.076Z,58
2016-04-06T12:44:12.095Z,58
2016-04-06T12:45:13.691Z,58
2016-04-06T12:46:15.382Z,58
2016-04-06T12:47:16.837Z,58
2016-04-06T12:48:18.433Z,58
2016-04-06T12:49:19.999Z,58
2016-04-06T12:50:21.704Z,58
2016-04-06T12:51:23.206Z,58
2016-04-06T12:52:24.866Z,58
2016-04-06T12:53:26.510Z,58
2016-04-06T12:54:27.403Z,58
2016-04-06T12:55:28.983Z,58
2016-04-06T12:56:30.565Z,58
2016-04-06T12:57:32.144Z,58
2016-04-06T12:58:33.744Z,58
2016-04-06T12:59:35.075Z,58
2016-04-06T13:00:36.391Z,58
2016-04-06T13:01:37.722Z,58
2016-04-06T13:02:39.161Z,58
2016-04-06T13:03:40.429Z,58
2016-04-06T13:04:41.464Z,58
2016-04-06T13:05:42.779Z,58
2016-04-06T13:06:44.235Z,58
2016-04-06T13:07:45.440Z,58
2016-04-06T13:08:46.756Z,58
2016-04-06T13:09:48.102Z,58
2016-04-06T13:10:49.682Z,58
2016-04-06T13:11:51.279Z,58
2016-04-06T13:12:52.850Z,58
2016-04-06T13:13:54.478Z,58
2016-04-06T13:14:55.527Z,58
2016-04-06T13:15:57.093Z,58
2016-04-06T13:16:58.674Z,58
2016-04-06T13:18:00.349Z,58
2016-04-06T13:19:01.819Z,58
2016-04-06T13:20:03.401Z,58
2016-04-06T13:21:04.996Z,58
2016-04-06T13:22:06.577Z,58
2016-04-06T13:23:08.143Z,58
2016-04-06T13:24:09.787Z,58
2016-04-06T13:25:10.398Z,58
2016-04-06T13:26:12.495Z,58
2016-04-06T13:27:13.982Z,58
2016-04-06T13:28:15.562Z,58
2016-04-06T13:29:17.128Z,58
2016-04-06T13:30:18.709Z,58
2016-04-06T13:31:20.290Z,58
2016-04-06T13:32:21.870Z,58
2016-04-06T13:33:23.467Z,59
2016-04-06T13:34:21.298Z,59
2016-04-06T13:35:22.316Z,59
2016-04-06T13:36:20.225Z,59
2016-04-06T13:37:17.884Z,59
2016-04-06T13:38:15.777Z,59
2016-04-06T13:39:13.561Z,59
2016-04-06T13:40:11.220Z,59
2016-04-06T13:41:09.003Z,59
2016-04-06T13:42:06.913Z,59
2016-04-06T13:43:04.588Z,59
2016-04-06T13:44:02.402Z,59
2016-04-06T13:45:03.530Z,59
2016-04-06T13:46:01.330Z,59
2016-04-06T13:46:58.974Z,59
2016-04-06T13:47:56.772Z,59
2016-04-06T13:48:54.244Z,59
2016-04-06T13:49:52.341Z,59
2016-04-06T13:50:50.109Z,59
2016-04-06T13:51:48.190Z,59
2016-04-06T13:52:45.802Z,59
2016-04-06T13:53:43.507Z,59
2016-04-06T13:54:44.526Z,59
2016-04-06T13:55:42.326Z,59
2016-04-06T13:56:40.109Z,59
2016-04-06T13:57:37.878Z,59
2016-04-06T13:58:35.662Z,59
2016-04-06T13:59:33.443Z,59
2016-04-06T14:00:31.320Z,59
2016-04-06T14:01:28.995Z,59
2016-04-06T14:02:26.779Z,59
2016-04-06T14:03:24.735Z,59
2016-04-06T14:04:25.628Z,59
2016-04-06T14:05:23.537Z,59
2016-04-06T14:06:21.212Z,59
2016-04-06T14:07:18.980Z,59
2016-04-06T14:08:16.769Z,59
2016-04-06T14:09:14.536Z,59
2016-04-06T14:10:12.321Z,59
2016-04-06T14:11:10.105Z,59
2016-04-06T14:12:07.889Z,59
2016-04-06T14:13:05.719Z,59
2016-04-06T14:14:06.754Z,59
2016-04-06T14:15:04.522Z,59
2016-04-06T14:16:02.305Z,59
2016-04-06T14:17:00.090Z,59
2016-04-06T14:17:57.874Z,59
2016-04-06T14:18:56.048Z,59
2016-04-06T14:19:53.942Z,59
2016-04-06T14:20:51.976Z,59
2016-04-06T14:21:50.229Z,59
2016-04-06T14:22:48.106Z,59
2016-04-06T14:23:49.108Z,59
2016-04-06T14:24:47.142Z,59
2016-04-06T14:25:45.193Z,59
2016-04-06T14:26:43.226Z,59
2016-04-06T14:27:41.369Z,59
2016-04-06T14:28:39.309Z,59
2016-04-06T14:29:37.437Z,59